createdAt,value
2018-09-12T00:02:47.072Z,1016.46
2018-09-12T00:03:47.079Z,1016.47
2018-09-12T00:05:42.526Z,1016.45
2018-09-12T00:06:42.014Z,1016.46
2018-09-12T00:08:37.952Z,1016.48
2018-09-12T00:09:37.437Z,1016.46
2018-09-12T00:11:33.364Z,1016.44
2018-09-12T00:12:33.369Z,1016.42
2018-09-12T00:14:29.316Z,1016.42
2018-09-12T00:15:29.329Z,1016.40
2018-09-12T00:17:25.311Z,1016.37
2018-09-12T00:18:25.270Z,1016.39
2018-09-12T00:20:21.748Z,1016.35
2018-09-12T00:21:21.248Z,1016.33
2018-09-12T00:23:23.726Z,1016.32
2018-09-12T00:24:20.213Z,1016.31
2018-09-12T00:26:15.329Z,1016.28
2018-09-12T00:27:16.325Z,1016.27
2018-09-12T00:29:09.801Z,1016.26
2018-09-12T00:30:09.777Z,1016.24
2018-09-12T00:32:06.243Z,1016.20
2018-09-12T00:33:05.722Z,1016.18
2018-09-12T00:35:01.653Z,1016.23
2018-09-12T00:36:01.663Z,1016.21
2018-09-12T00:37:58.635Z,1016.19
2018-09-12T00:38:57.597Z,1016.20
2018-09-12T00:40:54.579Z,1016.22
2018-09-12T00:41:53.522Z,1016.19
2018-09-12T00:43:49.492Z,1016.22
2018-09-12T00:44:49.979Z,1016.23
2018-09-12T00:46:47.423Z,1016.24
2018-09-12T00:47:45.426Z,1016.23
2018-09-12T00:49:39.865Z,1016.12
2018-09-12T00:50:39.866Z,1016.17
2018-09-12T00:52:35.824Z,1016.13
2018-09-12T00:53:35.832Z,1016.12
2018-09-12T00:55:30.234Z,1016.12
2018-09-12T00:56:30.247Z,1016.12
2018-09-12T01:02:53.809Z,1016.02
2018-09-12T01:03:52.967Z,1016.02
2018-09-12T01:05:48.917Z,1016.01
2018-09-12T01:06:48.922Z,1015.97
2018-09-12T01:08:46.805Z,1015.98
2018-09-12T01:09:44.863Z,1015.97
2018-09-12T01:11:42.837Z,1015.96
2018-09-12T01:12:43.317Z,1015.94
2018-09-12T01:14:37.721Z,1015.96
2018-09-12T01:15:37.731Z,1015.91
2018-09-12T01:17:32.754Z,1015.92
2018-09-12T01:18:31.669Z,1015.88
2018-09-12T01:20:26.115Z,1015.92
2018-09-12T01:21:26.107Z,1015.91
2018-09-12T01:23:22.055Z,1015.91
2018-09-12T01:24:20.559Z,1015.86
2018-09-12T01:26:14.999Z,1015.89
2018-09-12T01:27:15.010Z,1015.87
2018-09-12T01:29:10.975Z,1015.89
2018-09-12T01:30:10.938Z,1015.86
2018-09-12T01:32:06.916Z,1015.88
2018-09-12T01:33:06.905Z,1015.85
2018-09-12T01:35:01.919Z,1015.88
2018-09-12T01:36:01.354Z,1015.84
2018-09-12T01:39:33.136Z,1015.91
2018-09-12T01:40:32.609Z,1015.90
2018-09-12T01:42:27.564Z,1015.86
2018-09-12T01:43:27.046Z,1015.86
2018-09-12T01:45:23.033Z,1015.89
2018-09-12T01:46:22.999Z,1015.81
2018-09-12T01:48:17.449Z,1015.80
2018-09-12T01:49:17.967Z,1015.78
2018-09-12T01:51:13.423Z,1015.76
2018-09-12T01:52:11.885Z,1015.73
2018-09-12T01:54:06.337Z,1015.70
2018-09-12T01:55:06.843Z,1015.67
2018-09-12T01:57:01.304Z,1015.68
2018-09-12T01:58:00.764Z,1015.68
2018-09-12T01:59:58.745Z,1015.65
2018-09-12T02:00:58.725Z,1015.71
2018-09-12T02:02:53.201Z,1015.75
2018-09-12T02:03:53.184Z,1015.74
2018-09-12T02:05:51.639Z,1015.74
2018-09-12T02:06:51.116Z,1015.76
2018-09-12T02:08:47.080Z,1015.73
2018-09-12T02:09:47.047Z,1015.73
2018-09-12T02:11:43.497Z,1015.73
2018-09-12T02:12:43.497Z,1015.76
2018-09-12T02:14:39.435Z,1015.73
2018-09-12T02:15:38.924Z,1015.74
2018-09-12T02:17:35.868Z,1015.77
2018-09-12T02:18:34.857Z,1015.77
2018-09-12T02:20:30.845Z,1015.76
2018-09-12T02:21:30.805Z,1015.74
2018-09-12T02:23:25.773Z,1015.71
2018-09-12T02:24:25.247Z,1015.71
2018-09-12T02:26:20.199Z,1015.67
2018-09-12T02:27:19.687Z,1015.70
2018-09-12T02:29:17.663Z,1015.65
2018-09-12T02:30:17.136Z,1015.69
2018-09-12T02:32:11.606Z,1015.64
2018-09-12T02:33:11.568Z,1015.66
2018-09-12T02:35:07.491Z,1015.64
2018-09-12T02:36:08.034Z,1015.62
2018-09-12T02:38:03.498Z,1015.63
2018-09-12T02:39:03.967Z,1015.64
2018-09-12T02:40:58.419Z,1015.64
2018-09-12T02:41:58.438Z,1015.60
2018-09-12T02:43:53.828Z,1015.59
2018-09-12T02:44:53.814Z,1015.57
2018-09-12T02:46:49.762Z,1015.58
2018-09-12T02:47:50.259Z,1015.59
2018-09-12T02:49:45.708Z,1015.59
2018-09-12T02:50:44.198Z,1015.58
2018-09-12T02:52:39.169Z,1015.53
2018-09-12T02:53:38.170Z,1015.57
2018-09-12T02:55:33.628Z,1015.53
2018-09-12T02:56:33.601Z,1015.50
2018-09-12T02:58:28.054Z,1015.52
2018-09-12T02:59:28.059Z,1015.49
2018-09-12T03:01:20.483Z,1015.41
2018-09-12T03:02:20.484Z,1015.42
2018-09-12T03:04:16.453Z,1015.41
2018-09-12T03:05:16.414Z,1015.43
2018-09-12T03:07:15.390Z,1015.40
2018-09-12T03:08:14.360Z,1015.37
2018-09-12T03:10:11.325Z,1015.39
2018-09-12T03:11:10.332Z,1015.37
2018-09-12T03:13:04.767Z,1015.36
2018-09-12T03:14:05.277Z,1015.35
2018-09-12T03:16:00.742Z,1015.36
2018-09-12T03:17:00.723Z,1015.32
2018-09-12T03:18:55.185Z,1015.29
2018-09-12T03:19:55.696Z,1015.30
2018-09-12T03:21:51.670Z,1015.30
2018-09-12T03:22:51.162Z,1015.31
2018-09-12T03:24:45.597Z,1015.28
2018-09-12T03:25:46.181Z,1015.30
2018-09-12T03:27:41.567Z,1015.26
2018-09-12T03:28:42.062Z,1015.28
2018-09-12T03:30:41.994Z,1015.27
2018-09-12T03:31:40.074Z,1015.26
2018-09-12T03:33:35.524Z,1015.25
2018-09-12T03:34:34.516Z,1015.24
2018-09-12T03:36:30.453Z,1015.25
2018-09-12T03:37:30.467Z,1015.26
2018-09-12T03:39:27.409Z,1015.28
2018-09-12T03:40:27.414Z,1015.27
2018-09-12T03:42:21.065Z,1015.29
2018-09-12T03:43:21.026Z,1015.27
2018-09-12T03:45:16.983Z,1015.32
2018-09-12T03:46:16.948Z,1015.30
2018-09-12T03:48:13.433Z,1015.32
2018-09-12T03:49:13.411Z,1015.31
2018-09-12T03:51:07.282Z,1015.33
2018-09-12T03:52:07.293Z,1015.32
2018-09-12T03:54:03.398Z,1015.38
2018-09-12T03:55:03.752Z,1015.34
2018-09-12T03:56:57.789Z,1015.34
2018-09-12T03:57:58.698Z,1015.34
2018-09-12T03:59:54.752Z,1015.36
2018-09-12T04:00:53.736Z,1015.37
2018-09-12T04:02:49.716Z,1015.38
2018-09-12T04:03:49.670Z,1015.34
2018-09-12T04:05:46.643Z,1015.31
2018-09-12T04:06:47.119Z,1015.30
2018-09-12T04:08:41.588Z,1015.27
2018-09-12T04:09:41.562Z,1015.31
2018-09-12T04:11:37.017Z,1015.27
2018-09-12T04:12:36.533Z,1015.30
2018-09-12T04:14:32.932Z,1015.23
2018-09-12T04:15:31.925Z,1015.24
2018-09-12T04:17:27.884Z,1015.28
2018-09-12T04:18:27.877Z,1015.27
2018-09-12T04:20:22.345Z,1015.28
2018-09-12T04:21:22.334Z,1015.27
2018-09-12T04:23:18.285Z,1015.26
2018-09-12T04:24:19.240Z,1015.24
2018-09-12T04:26:12.740Z,1015.29
2018-09-12T04:27:12.730Z,1015.28
2018-09-12T04:29:07.197Z,1015.24
2018-09-12T04:30:06.184Z,1015.19
2018-09-12T04:32:02.173Z,1015.17
2018-09-12T04:33:02.137Z,1015.21
2018-09-12T04:34:57.102Z,1015.17
2018-09-12T04:35:56.584Z,1015.18
2018-09-12T04:37:52.550Z,1015.20
2018-09-12T04:38:52.524Z,1015.14
2018-09-12T04:40:48.974Z,1015.12
2018-09-12T04:41:48.436Z,1015.10
2018-09-12T04:43:44.912Z,1015.15
2018-09-12T04:44:44.371Z,1015.20
2018-09-12T04:46:40.358Z,1015.18
2018-09-12T04:47:40.312Z,1015.16
2018-09-12T04:49:35.784Z,1015.16
2018-09-12T04:50:35.781Z,1015.21
2018-09-12T04:52:29.935Z,1015.18
2018-09-12T04:53:29.426Z,1015.17
2018-09-12T04:55:26.404Z,1015.18
2018-09-12T04:56:26.372Z,1015.17
2018-09-12T04:58:21.384Z,1015.16
2018-09-12T04:59:21.167Z,1015.17
2018-09-12T05:01:19.128Z,1015.15
2018-09-12T05:02:17.074Z,1015.16
2018-09-12T05:04:12.025Z,1015.17
2018-09-12T05:05:11.501Z,1015.16
2018-09-12T05:07:10.391Z,1015.19
2018-09-12T05:08:09.788Z,1015.18
2018-09-12T05:10:05.283Z,1015.23
2018-09-12T05:11:04.251Z,1015.22
2018-09-12T05:13:00.213Z,1015.25
2018-09-12T05:14:00.171Z,1015.25
2018-09-12T05:16:01.078Z,1015.24
2018-09-12T05:16:57.692Z,1015.26
2018-09-12T05:18:52.730Z,1015.23
2018-09-12T05:19:53.584Z,1015.25
2018-09-12T05:21:47.704Z,1015.30
2018-09-12T05:22:47.247Z,1015.31
2018-09-12T05:24:43.962Z,1015.30
2018-09-12T05:25:43.944Z,1015.34
2018-09-12T05:27:41.450Z,1015.32
2018-09-12T05:28:40.090Z,1015.35
2018-09-12T05:30:37.409Z,1015.41
2018-09-12T05:32:50.435Z,1015.33
2018-09-12T05:33:53.452Z,1015.33
2018-09-12T05:35:47.804Z,1015.31
2018-09-12T05:36:44.851Z,1015.29
2018-09-12T05:38:40.804Z,1015.31
2018-09-12T05:41:01.906Z,1015.30
2018-09-12T05:41:57.238Z,1015.31
2018-09-12T05:43:54.282Z,1015.37
2018-09-12T05:45:06.296Z,1015.36
2018-09-12T05:46:58.357Z,1015.37
2018-09-12T05:47:59.257Z,1015.39
2018-09-12T05:49:56.344Z,1015.44
2018-09-12T05:50:54.622Z,1015.47
2018-09-12T05:53:27.877Z,1015.45
2018-09-12T05:54:28.358Z,1015.47
2018-09-12T06:07:31.941Z,1015.35
2018-09-12T06:08:31.192Z,1015.33
2018-09-12T06:10:30.219Z,1015.35
2018-09-12T06:11:29.415Z,1015.31
2018-09-12T06:13:42.393Z,1015.32
2018-09-12T06:14:25.373Z,1015.34
2018-09-12T06:16:22.243Z,1015.34
2018-09-12T06:17:17.674Z,1015.35
2018-09-12T06:19:15.837Z,1015.32
2018-09-12T06:20:14.849Z,1015.36
2018-09-12T06:22:11.489Z,1015.41
2018-09-12T06:24:28.012Z,1015.40
2018-09-12T06:25:27.002Z,1015.38
2018-09-12T06:27:23.951Z,1015.39
2018-09-12T06:28:21.328Z,1015.37
2018-09-12T06:30:15.239Z,1015.35
2018-09-12T06:31:14.936Z,1015.33
2018-09-12T06:33:09.380Z,1015.35
2018-09-12T06:34:09.377Z,1015.37
2018-09-12T06:36:22.466Z,1015.39
2018-09-12T06:38:37.382Z,1015.45
2018-09-12T06:39:23.469Z,1015.44
2018-09-12T06:41:19.396Z,1015.41
2018-09-12T06:42:19.300Z,1015.45
2018-09-12T06:44:15.263Z,1015.42
2018-09-12T06:45:15.233Z,1015.43
2018-09-12T06:47:11.208Z,1015.46
2018-09-12T06:48:11.706Z,1015.44
2018-09-12T06:50:05.634Z,1015.45
2018-09-12T06:51:06.560Z,1015.46
2018-09-12T06:52:59.104Z,1015.47
2018-09-12T06:53:59.092Z,1015.48
2018-09-12T06:55:53.569Z,1015.45
2018-09-12T06:56:53.556Z,1015.49
2018-09-12T06:58:49.540Z,1015.53
2018-09-12T06:59:49.489Z,1015.55
2018-09-12T07:01:43.949Z,1015.53
2018-09-12T07:02:44.456Z,1015.52
2018-09-12T07:04:39.923Z,1015.51
2018-09-12T07:05:38.396Z,1015.56
2018-09-12T07:07:33.432Z,1015.50
2018-09-12T07:08:32.839Z,1015.49
2018-09-12T07:10:27.791Z,1015.53
2018-09-12T07:11:27.301Z,1015.51
2018-09-12T07:13:22.256Z,1015.52
2018-09-12T07:14:20.949Z,1015.53
2018-09-12T07:16:17.294Z,1015.56
2018-09-12T07:17:17.802Z,1015.55
2018-09-12T07:19:11.780Z,1015.58
2018-09-12T07:20:11.251Z,1015.58
2018-09-12T07:22:07.221Z,1015.57
2018-09-12T07:23:07.194Z,1015.59
2018-09-12T07:25:00.670Z,1015.60
2018-09-12T07:26:01.186Z,1015.63
2018-09-12T07:27:56.594Z,1015.63
2018-09-12T07:28:57.107Z,1015.66
2018-09-12T07:30:53.051Z,1015.64
2018-09-12T07:31:52.505Z,1015.63
2018-09-12T07:33:48.477Z,1015.62
2018-09-12T07:34:48.464Z,1015.69
2018-09-12T07:36:43.424Z,1015.70
2018-09-12T07:37:42.919Z,1015.71
2018-09-12T07:39:36.371Z,1015.73
2018-09-12T07:40:36.378Z,1015.73
2018-09-12T07:42:32.828Z,1015.73
2018-09-12T07:43:32.333Z,1015.78
2018-09-12T07:45:28.310Z,1015.80
2018-09-12T07:46:28.294Z,1015.77
2018-09-12T07:48:24.256Z,1015.75
2018-09-12T07:49:25.746Z,1015.75
2018-09-12T07:51:22.696Z,1015.74
2018-09-12T07:52:22.330Z,1015.74
2018-09-12T07:54:18.299Z,1015.77
2018-09-12T07:55:18.294Z,1015.78
2018-09-12T07:57:14.751Z,1015.82
2018-09-12T07:58:14.751Z,1015.82
2018-09-12T08:00:10.268Z,1015.81
2018-09-12T08:01:10.699Z,1015.80
2018-09-12T08:03:06.134Z,1015.80
2018-09-12T08:04:04.635Z,1015.78
2018-09-12T08:06:02.122Z,1015.78
2018-09-12T08:07:02.116Z,1015.80
2018-09-12T08:08:57.364Z,1015.78
2018-09-12T08:09:57.884Z,1015.77
2018-09-12T08:11:54.334Z,1015.75
2018-09-12T08:12:53.330Z,1015.72
2018-09-12T08:14:46.803Z,1015.74
2018-09-12T08:15:46.803Z,1015.73
2018-09-12T08:17:42.770Z,1015.70
2018-09-12T08:18:42.741Z,1015.68
2018-09-12T08:20:39.222Z,1015.67
2018-09-12T08:21:38.733Z,1015.71
2018-09-12T08:23:35.188Z,1015.70
2018-09-12T08:24:34.677Z,1015.69
2018-09-12T08:26:28.635Z,1015.69
2018-09-12T08:27:28.656Z,1015.71
2018-09-12T08:29:25.091Z,1015.65
2018-09-12T08:30:24.088Z,1015.68
2018-09-12T08:32:21.547Z,1015.69
2018-09-12T08:33:21.003Z,1015.67
2018-09-12T08:35:17.003Z,1015.70
2018-09-12T08:36:16.002Z,1015.72
2018-09-12T08:38:13.421Z,1015.74
2018-09-12T08:39:12.911Z,1015.69
2018-09-12T08:41:08.833Z,1015.71
2018-09-12T08:42:08.917Z,1015.76
2018-09-12T08:44:04.798Z,1015.74
2018-09-12T08:45:04.776Z,1015.77
2018-09-12T08:46:58.743Z,1015.77
2018-09-12T08:47:58.217Z,1015.79
2018-09-12T08:49:55.190Z,1015.78
2018-09-12T08:50:54.169Z,1015.77
2018-09-12T08:52:48.675Z,1015.78
2018-09-12T08:53:49.140Z,1015.79
2018-09-12T08:55:46.096Z,1015.78
2018-09-12T08:56:45.609Z,1015.81
2018-09-12T08:58:41.059Z,1015.81
2018-09-12T08:59:40.640Z,1015.85
2018-09-12T09:01:36.044Z,1015.87
2018-09-12T09:02:34.979Z,1015.81
2018-09-12T09:04:31.432Z,1015.84
2018-09-12T09:05:31.423Z,1015.79
2018-09-12T09:07:26.860Z,1015.78
2018-09-12T09:08:27.791Z,1015.85
2018-09-12T09:10:23.367Z,1015.85
2018-09-12T09:11:23.038Z,1015.86
2018-09-12T09:13:18.786Z,1015.87
2018-09-12T09:14:18.772Z,1015.83
2018-09-12T09:16:13.246Z,1015.87
2018-09-12T09:17:13.371Z,1015.89
2018-09-12T09:19:07.691Z,1015.93
2018-09-12T09:20:07.707Z,1015.96
2018-09-12T09:22:05.166Z,1015.90
2018-09-12T09:23:04.153Z,1015.87
2018-09-12T09:24:59.625Z,1015.87
2018-09-12T09:25:59.610Z,1015.87
2018-09-12T09:27:54.577Z,1015.88
2018-09-12T09:28:54.081Z,1015.87
2018-09-12T09:30:52.070Z,1015.87
2018-09-12T09:31:51.987Z,1015.86
2018-09-12T09:33:47.940Z,1015.91
2018-09-12T09:34:46.475Z,1015.86
2018-09-12T09:36:41.396Z,1015.83
2018-09-12T09:37:40.894Z,1015.85
2018-09-12T09:39:36.368Z,1015.89
2018-09-12T09:40:36.354Z,1015.86
2018-09-12T09:42:33.808Z,1015.95
2018-09-12T09:43:31.854Z,1015.94
2018-09-12T09:45:24.842Z,1015.88
2018-09-12T09:46:24.812Z,1015.91
2018-09-12T09:48:22.345Z,1015.92
2018-09-12T09:49:20.756Z,1015.93
2018-09-12T09:51:13.777Z,1015.87
2018-09-12T09:52:13.764Z,1015.88
2018-09-12T09:54:08.222Z,1015.93
2018-09-12T09:55:08.238Z,1015.90
2018-09-12T09:57:02.196Z,1015.98
2018-09-12T09:58:02.214Z,1015.93
2018-09-12T10:00:01.135Z,1015.96
2018-09-12T10:00:58.142Z,1015.94
2018-09-12T10:02:56.709Z,1015.93
2018-09-12T10:03:53.945Z,1015.93
2018-09-12T10:05:49.290Z,1015.95
2018-09-12T10:06:49.252Z,1015.94
2018-09-12T10:08:44.174Z,1015.95
2018-09-12T10:09:43.647Z,1015.95
2018-09-12T10:11:37.626Z,1015.98
2018-09-12T10:12:38.233Z,1015.98
2018-09-12T10:14:34.721Z,1016.05
2018-09-12T10:15:34.575Z,1016.03
2018-09-12T10:17:28.426Z,1015.95
2018-09-12T10:18:29.423Z,1015.98
2018-09-12T10:20:23.413Z,1015.97
2018-09-12T10:21:22.887Z,1015.98
2018-09-12T10:23:17.349Z,1015.91
2018-09-12T10:24:16.427Z,1015.91
2018-09-12T10:26:12.857Z,1015.98
2018-09-12T10:27:12.326Z,1016.01
2018-09-12T10:29:06.293Z,1015.96
2018-09-12T10:30:05.783Z,1015.92
2018-09-12T10:32:04.269Z,1015.95
2018-09-12T10:33:03.914Z,1015.92
2018-09-12T10:35:01.381Z,1015.94
2018-09-12T10:35:59.873Z,1015.95
2018-09-12T10:37:57.324Z,1015.86
2018-09-12T10:38:55.838Z,1015.87
2018-09-12T10:40:51.285Z,1015.86
2018-09-12T10:41:50.790Z,1015.86
2018-09-12T10:43:44.695Z,1015.96
2018-09-12T10:44:44.737Z,1015.93
2018-09-12T10:46:39.200Z,1015.86
2018-09-12T10:47:41.213Z,1015.92
2018-09-12T10:49:35.130Z,1015.89
2018-09-12T10:50:35.139Z,1015.89
2018-09-12T10:52:28.635Z,1015.90
2018-09-12T10:53:28.626Z,1015.88
2018-09-12T10:55:24.624Z,1015.82
2018-09-12T10:56:24.601Z,1015.79
2018-09-12T10:58:20.580Z,1015.89
2018-09-12T10:59:20.575Z,1015.90
2018-09-12T11:01:14.993Z,1015.77
2018-09-12T11:02:14.999Z,1015.80
2018-09-12T11:04:11.564Z,1015.82
2018-09-12T11:05:11.360Z,1015.81
2018-09-12T11:07:11.569Z,1015.81
2018-09-12T11:08:05.327Z,1015.79
2018-09-12T11:10:00.846Z,1015.92
2018-09-12T11:11:00.829Z,1015.89
2018-09-12T11:12:56.761Z,1015.83
2018-09-12T11:13:56.762Z,1015.85
2018-09-12T11:15:51.226Z,1015.79
2018-09-12T11:16:51.229Z,1015.84
2018-09-12T11:18:45.684Z,1015.83
2018-09-12T11:19:45.750Z,1015.84
2018-09-12T11:21:42.157Z,1015.83
2018-09-12T11:22:41.626Z,1015.77
2018-09-12T11:24:36.084Z,1015.73
2018-09-12T11:25:36.083Z,1015.80
2018-09-12T11:27:32.058Z,1015.76
2018-09-12T11:28:32.435Z,1015.68
2018-09-12T11:30:27.006Z,1015.71
2018-09-12T11:31:27.010Z,1015.71
2018-09-12T11:33:22.481Z,1015.64
2018-09-12T11:34:22.515Z,1015.72
2018-09-12T11:36:16.920Z,1015.72
2018-09-12T11:37:16.931Z,1015.68
2018-09-12T11:39:11.910Z,1015.73
2018-09-12T11:40:11.506Z,1015.69
2018-09-12T11:42:07.426Z,1015.66
2018-09-12T11:43:07.912Z,1015.68
2018-09-12T11:45:01.867Z,1015.72
2018-09-12T11:46:01.848Z,1015.67
2018-09-12T11:47:57.830Z,1015.69
2018-09-12T11:48:57.846Z,1015.71
2018-09-12T11:50:52.284Z,1015.71
2018-09-12T11:51:52.767Z,1015.75
2018-09-12T11:53:46.709Z,1015.65
2018-09-12T11:54:47.214Z,1015.65
2018-09-12T11:56:42.660Z,1015.63
2018-09-12T11:57:42.678Z,1015.61
2018-09-12T11:59:38.620Z,1015.58
2018-09-12T12:00:38.629Z,1015.52
2018-09-12T12:02:37.089Z,1015.52
2018-09-12T12:03:36.581Z,1015.52
2018-09-12T12:05:34.063Z,1015.56
2018-09-12T12:06:33.045Z,1015.59
2018-09-12T12:08:28.525Z,1015.62
2018-09-12T12:09:28.504Z,1015.67
2018-09-12T12:11:23.967Z,1015.68
2018-09-12T12:12:22.935Z,1015.71
2018-09-12T12:14:21.925Z,1015.63
2018-09-12T12:15:20.183Z,1015.68
2018-09-12T12:17:12.940Z,1015.59
2018-09-12T12:18:12.993Z,1015.62
2018-09-12T12:20:12.578Z,1015.66
2018-09-12T12:21:07.847Z,1015.59
2018-09-12T12:23:01.386Z,1015.63
2018-09-12T12:24:01.462Z,1015.61
2018-09-12T12:25:55.329Z,1015.63
2018-09-12T12:26:55.334Z,1015.60
2018-09-12T12:28:50.879Z,1015.57
2018-09-12T12:29:49.811Z,1015.54
2018-09-12T12:31:44.360Z,1015.54
2018-09-12T12:32:44.322Z,1015.56
2018-09-12T12:34:41.758Z,1015.54
2018-09-12T12:36:55.210Z,1015.47
2018-09-12T12:37:55.187Z,1015.42
2018-09-12T12:39:50.636Z,1015.46
2018-09-12T12:40:49.974Z,1015.45
2018-09-12T12:42:44.466Z,1015.43
2018-09-12T12:43:45.428Z,1015.42
2018-09-12T12:45:40.926Z,1015.49
2018-09-12T12:46:40.422Z,1015.44
2018-09-12T12:48:37.308Z,1015.41
2018-09-12T12:49:37.391Z,1015.38
2018-09-12T12:51:33.996Z,1015.41
2018-09-12T12:52:34.375Z,1015.42
2018-09-12T12:54:34.576Z,1015.38
2018-09-12T12:55:29.939Z,1015.37
2018-09-12T12:57:37.148Z,1015.40
2018-09-12T12:58:27.757Z,1015.39
2018-09-12T13:00:23.371Z,1015.35
2018-09-12T13:01:22.366Z,1015.28
2018-09-12T13:03:17.328Z,1015.31
2018-09-12T13:04:16.805Z,1015.25
2018-09-12T13:06:13.286Z,1015.21
2018-09-12T13:07:13.709Z,1015.23
2018-09-12T13:09:07.728Z,1015.18
2018-09-12T13:10:07.257Z,1015.25
2018-09-12T13:12:03.785Z,1015.28
2018-09-12T13:13:03.207Z,1015.34
2018-09-12T13:14:57.643Z,1015.19
2018-09-12T13:15:57.657Z,1015.25
2018-09-12T13:17:53.653Z,1015.23
2018-09-12T13:18:54.630Z,1015.22
2018-09-12T13:20:50.140Z,1015.21
2018-09-12T13:21:50.339Z,1015.20
2018-09-12T13:23:59.581Z,1015.18
2018-09-12T13:24:58.106Z,1015.13
2018-09-12T13:26:52.560Z,1015.13
2018-09-12T13:27:52.625Z,1015.07
2018-09-12T13:29:48.541Z,1015.11
2018-09-12T13:30:49.536Z,1015.12
2018-09-12T13:32:44.526Z,1015.13
2018-09-12T13:33:44.502Z,1015.10
2018-09-12T13:35:42.480Z,1015.11
2018-09-12T13:36:42.453Z,1015.14
2018-09-12T13:38:40.450Z,1015.16
2018-09-12T13:39:40.418Z,1015.14
2018-09-12T13:41:36.369Z,1015.11
2018-09-12T13:42:36.379Z,1015.07
2018-09-12T13:44:34.425Z,1015.08
2018-09-12T13:45:33.225Z,1015.09
2018-09-12T13:47:29.249Z,1015.13
2018-09-12T13:48:29.227Z,1015.10
2018-09-12T13:50:25.170Z,1015.10
2018-09-12T13:51:25.201Z,1015.08
2018-09-12T13:53:21.225Z,1015.02
2018-09-12T13:54:21.667Z,1015.02
2018-09-12T13:56:21.604Z,1015.06
2018-09-12T13:57:22.110Z,1015.03
2018-09-12T13:59:19.089Z,1014.98
2018-09-12T14:00:18.087Z,1014.98
2018-09-12T14:02:14.534Z,1015.03
2018-09-12T14:03:13.521Z,1015.01
2018-09-12T14:05:10.497Z,1014.98
2018-09-12T14:06:10.501Z,1015.01
2018-09-12T14:08:05.454Z,1014.98
2018-09-12T14:09:05.468Z,1014.99
2018-09-12T14:11:01.444Z,1014.99
2018-09-12T14:12:01.406Z,1015.01
2018-09-12T14:13:59.368Z,1015.04
2018-09-12T14:14:59.921Z,1015.05
2018-09-12T14:16:57.843Z,1015.09
2018-09-12T14:17:57.317Z,1015.17
2018-09-12T14:19:56.799Z,1015.14
2018-09-12T14:20:55.292Z,1015.19
2018-09-12T14:22:51.331Z,1015.12
2018-09-12T14:23:51.249Z,1015.14
2018-09-12T14:25:48.211Z,1015.11
2018-09-12T14:26:47.214Z,1015.16
2018-09-12T14:28:45.252Z,1015.14
2018-09-12T14:29:46.178Z,1015.12
2018-09-12T14:31:42.025Z,1015.19
2018-09-12T14:32:42.682Z,1015.23
2018-09-12T14:34:40.649Z,1015.27
2018-09-12T14:35:38.007Z,1015.30
2018-09-12T14:37:33.969Z,1015.28
2018-09-12T14:38:33.951Z,1015.41
2018-09-12T14:40:31.929Z,1015.41
2018-09-12T14:41:30.074Z,1015.34
2018-09-12T14:43:28.497Z,1015.34
2018-09-12T14:44:28.188Z,1015.22
2018-09-12T14:46:36.665Z,1015.34
2018-09-12T14:47:36.691Z,1015.37
2018-09-12T14:49:33.109Z,1015.37
2018-09-12T14:50:32.598Z,1015.27
2018-09-12T14:52:30.721Z,1015.32
2018-09-12T14:53:30.724Z,1015.37
2018-09-12T14:55:26.785Z,1015.41
2018-09-12T14:56:26.756Z,1015.26
2018-09-12T14:58:23.225Z,1015.32
2018-09-12T15:00:44.041Z,1015.44
2018-09-12T15:01:44.281Z,1015.39
2018-09-12T15:03:40.050Z,1015.45
2018-09-12T15:06:01.150Z,1015.44
2018-09-12T15:07:00.108Z,1015.47
2018-09-12T15:08:59.013Z,1015.40
2018-09-12T15:09:58.971Z,1015.44
2018-09-12T15:12:00.464Z,1015.30
2018-09-12T15:14:55.659Z,1015.43
2018-09-12T15:15:50.991Z,1015.44
2018-09-12T15:17:54.842Z,1015.48
2018-09-12T15:18:52.516Z,1015.46
2018-09-12T15:20:54.813Z,1015.47
2018-09-12T15:21:54.212Z,1015.49
2018-09-12T15:23:54.340Z,1015.57
2018-09-12T15:24:56.178Z,1015.47
2018-09-12T15:27:11.366Z,1015.61
2018-09-12T15:28:22.437Z,1015.63
2018-09-12T15:30:09.104Z,1015.60
2018-09-12T15:31:09.453Z,1015.68
2018-09-12T15:33:19.137Z,1015.55
2018-09-12T15:34:18.723Z,1015.70
2018-09-12T15:36:39.281Z,1015.63
2018-09-12T15:37:37.493Z,1015.69
2018-09-12T15:39:47.372Z,1015.70
2018-09-12T15:40:38.332Z,1015.66
2018-09-12T15:42:48.198Z,1015.68
2018-09-12T15:43:48.827Z,1015.70
2018-09-12T15:45:51.783Z,1015.75
2018-09-12T15:46:50.218Z,1015.75
2018-09-12T15:48:47.088Z,1015.75
2018-09-12T15:49:46.190Z,1015.67
2018-09-12T15:51:44.752Z,1015.77
2018-09-12T15:52:45.156Z,1015.77
2018-09-12T15:54:46.583Z,1015.83
2018-09-12T15:55:46.935Z,1015.86
2018-09-12T15:57:48.968Z,1015.80
2018-09-12T15:58:47.390Z,1015.79
2018-09-12T16:00:49.003Z,1015.89
2018-09-12T16:01:47.051Z,1015.82
2018-09-12T16:04:02.856Z,1015.84
2018-09-12T16:04:50.383Z,1015.88
2018-09-12T16:07:07.050Z,1015.74
2018-09-12T16:08:06.713Z,1015.90
2018-09-12T16:10:12.993Z,1015.86
2018-09-12T16:11:10.152Z,1015.90
2018-09-12T16:13:11.993Z,1015.95
2018-09-12T16:14:10.693Z,1015.96
2018-09-12T16:16:09.086Z,1015.98
2018-09-12T16:17:08.396Z,1016.03
2018-09-12T16:19:14.482Z,1016.01
2018-09-12T16:20:12.937Z,1016.01
2018-09-12T16:22:09.137Z,1015.97
2018-09-12T16:23:09.136Z,1016.03
2018-09-12T16:25:09.067Z,1015.99
2018-09-12T16:26:09.039Z,1016.02
2018-09-12T16:28:09.929Z,1016.03
2018-09-12T16:29:09.620Z,1015.99
2018-09-12T16:31:06.960Z,1016.02
2018-09-12T16:32:07.465Z,1016.03
2018-09-12T16:34:09.302Z,1016.02
2018-09-12T16:35:07.991Z,1015.97
2018-09-12T16:37:07.826Z,1015.97
2018-09-12T16:38:08.350Z,1016.03
2018-09-12T16:40:08.771Z,1015.98
2018-09-12T16:41:08.821Z,1015.97
2018-09-12T16:43:12.811Z,1015.95
2018-09-12T16:44:14.806Z,1015.95
2018-09-12T16:46:13.222Z,1015.96
2018-09-12T16:47:13.195Z,1015.93
2018-09-12T16:49:12.209Z,1015.96
2018-09-12T16:50:11.305Z,1015.96
2018-09-12T16:52:09.769Z,1016.05
2018-09-12T16:53:09.800Z,1016.08
2018-09-12T16:55:05.286Z,1016.06
2018-09-12T16:56:05.229Z,1016.07
2018-09-12T16:58:05.691Z,1016.06
2018-09-12T16:59:07.154Z,1016.09
2018-09-12T17:01:02.162Z,1016.08
2018-09-12T17:02:01.617Z,1016.10
2018-09-12T17:03:58.038Z,1016.17
2018-09-12T17:04:57.539Z,1016.17
2018-09-12T17:06:56.004Z,1016.16
2018-09-12T17:07:55.504Z,1016.21
2018-09-12T17:09:56.454Z,1016.17
2018-09-12T17:10:56.444Z,1016.22
2018-09-12T17:12:51.967Z,1016.22
2018-09-12T17:13:52.894Z,1016.23
2018-09-12T17:15:52.347Z,1016.24
2018-09-12T17:16:52.438Z,1016.21
2018-09-12T17:18:48.832Z,1016.26
2018-09-12T17:19:48.313Z,1016.25
2018-09-12T17:21:46.444Z,1016.26
2018-09-12T17:22:46.422Z,1016.25
2018-09-12T17:24:44.581Z,1016.28
2018-09-12T17:25:44.573Z,1016.25
2018-09-12T17:27:42.517Z,1016.34
2018-09-12T17:28:42.490Z,1016.31
2018-09-12T17:30:38.468Z,1016.35
2018-09-12T17:31:38.484Z,1016.31
2018-09-12T17:33:39.284Z,1016.37
2018-09-12T17:34:36.432Z,1016.37
2018-09-12T17:36:34.499Z,1016.36
2018-09-12T17:37:34.385Z,1016.34
2018-09-12T17:39:32.830Z,1016.34
2018-09-12T17:40:32.311Z,1016.35
2018-09-12T17:42:30.281Z,1016.39
2018-09-12T17:43:30.773Z,1016.38
2018-09-12T17:45:31.252Z,1016.41
2018-09-12T17:46:31.931Z,1016.37
2018-09-12T17:48:29.266Z,1016.36
2018-09-12T17:49:28.669Z,1016.40
2018-09-12T17:51:27.615Z,1016.41
2018-09-12T17:52:26.107Z,1016.43
2018-09-12T17:54:23.457Z,1016.44
2018-09-12T17:59:13.481Z,1016.43
2018-09-12T18:01:13.853Z,1016.43
2018-09-12T18:04:14.829Z,1016.41
2018-09-12T18:05:14.812Z,1016.36
2018-09-12T18:07:50.347Z,1016.32
2018-09-12T18:08:50.280Z,1016.34
2018-09-12T18:10:46.624Z,1016.39
2018-09-12T18:13:03.004Z,1016.38
2018-09-12T18:14:03.023Z,1016.36
2018-09-12T18:16:02.829Z,1016.35
2018-09-12T18:17:01.938Z,1016.35
2018-09-12T18:19:10.471Z,1016.41
2018-09-12T18:22:37.920Z,1016.44